Time;durP1;ratioP1;P1;durP2;ratioP2;P2;SDS_P1;SDS_P2;PMS_P1;PMS_P2;Temp;Humidity;BMP_temperature;BMP_pressure;BME280_temperature;BME280_humidity;BME280_pressure;Samples;Min_cycle;Max_cycle;Signal;HPM_P1;HPM_P2
2022/05/17 00:01:33;;;;;;;4.97;4.57;;;20.10;75.30;;;;;;5083357;28;20246;-85
2022/05/17 00:03:59;;;;;;;5.18;4.65;;;20.10;75.40;;;;;;5079288;28;20192;-83
2022/05/17 00:06:26;;;;;;;6.47;4.60;;;20.00;75.70;;;;;;5087089;28;20177;-83
2022/05/17 00:08:52;;;;;;;4.53;4.18;;;19.90;75.60;;;;;;5081663;28;20207;-84
2022/05/17 00:11:18;;;;;;;4.47;4.07;;;19.90;75.80;;;;;;5077040;28;20203;-85
2022/05/17 00:13:44;;;;;;;5.95;5.05;;;19.90;75.80;;;;;;5078449;28;20173;-83
2022/05/17 00:16:11;;;;;;;5.22;4.82;;;19.90;75.70;;;;;;5077153;28;20229;-83
2022/05/17 00:18:37;;;;;;;6.03;4.53;;;19.90;75.80;;;;;;5082979;28;20202;-84
2022/05/17 00:21:04;;;;;;;4.72;4.32;;;19.90;75.70;;;;;;5081589;28;20208;-84
2022/05/17 00:23:30;;;;;;;5.00;4.57;;;19.90;75.90;;;;;;5082812;28;20711;-83
2022/05/17 00:25:56;;;;;;;6.32;4.93;;;19.80;76.40;;;;;;5078461;28;20186;-83
2022/05/17 00:28:23;;;;;;;4.85;4.40;;;19.70;76.60;;;;;;5079896;28;20203;-84
2022/05/17 00:30:50;;;;;;;5.22;4.32;;;19.70;76.70;;;;;;5091328;28;20439;-83
2022/05/17 00:33:16;;;;;;;4.80;4.40;;;19.70;76.40;;;;;;5081763;28;20631;-83
2022/05/17 00:35:45;;;;;;;6.38;4.88;;;19.70;76.20;;;;;;5076644;28;20209;-84
2022/05/17 00:38:12;;;;;;;4.82;4.30;;;19.80;76.00;;;;;;5078551;28;20193;-83
2022/05/17 00:40:38;;;;;;;5.05;4.63;;;19.70;76.20;;;;;;5084663;28;20215;-84
2022/05/17 00:43:09;;;;;;;5.25;4.75;;;19.70;76.10;;;;;;5080731;28;20183;-84
2022/05/17 00:45:39;;;;;;;5.30;4.63;;;19.70;76.60;;;;;;5079493;28;20661;-84
2022/05/17 00:48:06;;;;;;;5.10;4.63;;;19.70;76.80;;;;;;5080791;28;20206;-84
2022/05/17 00:50:37;;;;;;;7.93;4.90;;;19.60;76.40;;;;;;5083601;28;20218;-82
2022/05/17 00:53:10;;;;;;;6.03;4.20;;;19.50;76.60;;;;;;5081265;28;20238;-85
2022/05/17 00:55:44;;;;;;;5.55;4.70;;;19.40;76.30;;;;;;5079580;28;20665;-85
2022/05/17 00:58:35;;;;;;;5.68;5.15;;;19.50;75.90;;;;;;5080324;28;20192;-84
2022/05/17 01:01:10;;;;;;;7.55;4.95;;;19.50;76.20;;;;;;5076346;28;20235;-83
2022/05/17 01:03:42;;;;;;;5.88;4.57;;;19.40;77.70;;;;;;5081139;28;20188;-83
2022/05/17 01:06:09;;;;;;;5.47;4.50;;;19.30;79.00;;;;;;5076329;28;20208;-82
2022/05/17 01:08:35;;;;;;;5.05;4.65;;;19.20;79.70;;;;;;5079469;28;20588;-83
2022/05/17 01:11:01;;;;;;;5.97;5.00;;;19.30;79.60;;;;;;5079633;28;20218;-83
2022/05/17 01:16:12;;;;;;;5.38;4.53;;;19.40;79.90;;;;;;5073819;28;20210;-83
2022/05/17 01:18:41;;;;;;;5.45;5.05;;;19.30;79.10;;;;;;5082319;28;20279;-82
2022/05/17 01:21:08;;;;;;;5.40;4.90;;;19.40;78.70;;;;;;5075684;28;20185;-82
2022/05/17 01:23:34;;;;;;;5.40;4.93;;;19.30;78.20;;;;;;5079137;28;20181;-83
2022/05/17 01:26:00;;;;;;;5.68;4.90;;;19.40;78.00;;;;;;5078288;28;20196;-84
2022/05/17 01:28:29;;;;;;;5.38;4.90;;;19.40;77.90;;;;;;5073667;28;20294;-85
2022/05/17 01:31:03;;;;;;;5.57;5.03;;;19.30;78.60;;;;;;5078428;28;20598;-84
2022/05/17 01:33:31;;;;;;;6.95;5.18;;;19.20;79.10;;;;;;5075623;28;20168;-84
2022/05/17 01:35:56;;;;;;;4.97;4.55;;;19.20;79.40;;;;;;5075551;28;20178;-84
2022/05/17 01:38:22;;;;;;;4.63;4.22;;;18.90;80.20;;;;;;5095365;28;20179;-84
2022/05/17 01:40:48;;;;;;;5.80;4.90;;;19.00;79.60;;;;;;5076753;28;20211;-83
2022/05/17 01:43:13;;;;;;;5.00;4.50;;;19.10;79.00;;;;;;5077056;28;20184;-84
2022/05/17 01:45:39;;;;;;;4.60;4.15;;;19.10;78.60;;;;;;5082248;28;20189;-84
2022/05/17 01:48:05;;;;;;;4.70;4.03;;;19.10;77.40;;;;;;5075709;28;20323;-84
2022/05/17 01:50:31;;;;;;;5.43;4.30;;;19.10;77.10;;;;;;5061451;28;20227;-83
2022/05/17 01:52:57;;;;;;;4.65;4.20;;;19.10;76.90;;;;;;5077668;28;20239;-84
2022/05/17 01:55:22;;;;;;;4.22;3.83;;;19.20;76.70;;;;;;5074547;28;20192;-83
2022/05/17 01:57:48;;;;;;;4.68;4.28;;;19.10;76.80;;;;;;5083601;28;20562;-83
2022/05/17 02:00:16;;;;;;;5.32;4.45;;;19.10;76.90;;;;;;5080080;28;20219;-84
2022/05/17 02:02:41;;;;;;;4.90;4.47;;;19.00;77.00;;;;;;5074562;28;20203;-83
2022/05/17 02:05:08;;;;;;;5.63;4.97;;;19.00;76.90;;;;;;5090853;28;20663;-83
2022/05/17 02:07:34;;;;;;;4.22;3.92;;;19.10;76.80;;;;;;5075152;28;20206;-84
2022/05/17 02:10:00;;;;;;;5.03;4.35;;;19.00;76.40;;;;;;5069750;28;20199;-84
2022/05/17 02:12:26;;;;;;;4.18;3.78;;;18.90;77.50;;;;;;5079744;28;20187;-84
2022/05/17 02:14:52;;;;;;;5.15;4.03;;;18.90;76.90;;;;;;5074415;28;20181;-83
2022/05/17 02:17:18;;;;;;;4.72;4.30;;;18.90;76.70;;;;;;5081315;28;20215;-84
2022/05/17 02:19:44;;;;;;;6.03;4.65;;;18.90;76.20;;;;;;5078868;28;20214;-84
2022/05/17 02:22:11;;;;;;;5.10;4.43;;;18.80;76.00;;;;;;5070561;28;20192;-84
2022/05/17 02:24:37;;;;;;;4.47;4.07;;;18.70;77.40;;;;;;5074717;28;20547;-85
2022/05/17 02:27:03;;;;;;;5.20;4.70;;;18.80;77.10;;;;;;5080665;28;20191;-84
2022/05/17 02:29:31;;;;;;;5.85;4.30;;;18.80;76.90;;;;;;5076569;28;20212;-84
2022/05/17 02:31:57;;;;;;;4.50;4.05;;;18.80;76.70;;;;;;5082372;28;20197;-84
2022/05/17 02:34:24;;;;;;;4.85;4.45;;;18.70;76.90;;;;;;5085264;28;20182;-83
2022/05/17 02:36:49;;;;;;;4.88;4.38;;;18.70;76.80;;;;;;5077904;28;20213;-84
2022/05/17 02:39:15;;;;;;;8.70;4.78;;;18.60;76.80;;;;;;5077183;28;20287;-84
2022/05/17 02:41:41;;;;;;;4.63;3.90;;;18.50;77.10;;;;;;5080838;28;20181;-83
2022/05/17 02:44:07;;;;;;;7.28;4.45;;;18.30;79.60;;;;;;5076085;28;20225;-85
2022/05/17 02:46:34;;;;;;;5.10;4.60;;;18.30;79.20;;;;;;5081235;28;20207;-84
2022/05/17 02:49:02;;;;;;;4.13;3.80;;;18.40;79.80;;;;;;5084930;28;20286;-84
2022/05/17 02:51:28;;;;;;;4.50;4.13;;;18.50;79.50;;;;;;5080363;28;20193;-85
2022/05/17 02:53:54;;;;;;;5.53;3.75;;;18.40;77.80;;;;;;5076146;28;20191;-84
2022/05/17 02:56:20;;;;;;;5.45;3.85;;;18.30;77.80;;;;;;5084122;28;20241;-84
2022/05/17 02:58:46;;;;;;;5.00;4.20;;;18.20;79.00;;;;;;5078435;28;20196;-84
2022/05/17 03:01:11;;;;;;;4.72;4.18;;;18.20;78.40;;;;;;5083361;28;20195;-84
2022/05/17 03:03:41;;;;;;;4.57;4.18;;;18.30;78.50;;;;;;5083090;28;20202;-85
2022/05/17 03:06:09;;;;;;;4.78;4.28;;;18.20;78.90;;;;;;5079973;28;20188;-84
2022/05/17 03:08:35;;;;;;;6.78;5.22;;;18.20;78.40;;;;;;5081308;28;20203;-84
2022/05/17 03:11:01;;;;;;;6.18;4.30;;;18.30;78.10;;;;;;5081588;28;20261;-84
2022/05/17 03:13:27;;;;;;;4.88;4.38;;;18.30;77.80;;;;;;5079820;28;20202;-84
2022/05/17 03:15:53;;;;;;;5.57;3.90;;;18.30;77.50;;;;;;5081471;28;20204;-84
2022/05/17 03:18:19;;;;;;;5.47;3.80;;;18.20;77.50;;;;;;5080333;28;20196;-84
2022/05/17 03:20:47;;;;;;;6.00;4.25;;;18.20;77.70;;;;;;5064017;28;20270;-83
2022/05/17 03:23:13;;;;;;;4.78;4.05;;;18.00;78.40;;;;;;5083736;28;20243;-83
2022/05/17 03:25:39;;;;;;;4.85;4.30;;;18.00;78.90;;;;;;5074408;28;20192;-84
2022/05/17 03:28:04;;;;;;;4.40;4.00;;;18.10;79.00;;;;;;5083043;28;20290;-85
2022/05/17 03:30:31;;;;;;;4.57;4.18;;;18.10;79.10;;;;;;5084570;28;20203;-84
2022/05/17 03:32:57;;;;;;;4.70;4.15;;;18.20;79.00;;;;;;5078139;28;20194;-84
2022/05/17 03:35:23;;;;;;;5.15;4.75;;;18.00;79.00;;;;;;5069128;28;20239;-84
2022/05/17 03:37:49;;;;;;;4.55;4.18;;;17.90;80.20;;;;;;5081337;28;20187;-84
2022/05/17 03:40:15;;;;;;;11.82;10.93;;;17.70;81.70;;;;;;5075336;28;20211;-83
2022/05/17 03:42:41;;;;;;;5.15;4.68;;;17.60;82.60;;;;;;5083314;28;20210;-84
2022/05/17 03:45:08;;;;;;;4.82;4.43;;;17.60;82.50;;;;;;5072421;28;20184;-82
2022/05/17 03:47:34;;;;;;;4.70;4.30;;;17.40;82.90;;;;;;5081244;28;20214;-84
2022/05/17 03:50:00;;;;;;;4.97;4.43;;;17.30;83.80;;;;;;5082254;28;20207;-84
2022/05/17 03:52:30;;;;;;;5.40;4.90;;;17.20;84.70;;;;;;5078060;28;20188;-84
2022/05/17 03:54:58;;;;;;;4.88;4.00;;;17.20;85.40;;;;;;5076726;28;20212;-84
2022/05/17 03:57:26;;;;;;;4.95;4.35;;;17.20;84.10;;;;;;5079990;28;20253;-83
2022/05/17 03:59:52;;;;;;;4.67;4.27;;;17.20;84.60;;;;;;5068804;28;20213;-84
2022/05/17 04:02:18;;;;;;;7.30;3.78;;;17.20;83.10;;;;;;5081409;28;20196;-83
2022/05/17 04:04:44;;;;;;;4.63;4.22;;;17.30;82.70;;;;;;5077996;28;20839;-83
2022/05/17 04:07:10;;;;;;;4.47;4.13;;;17.40;81.20;;;;;;5075865;28;20248;-84
2022/05/17 04:09:35;;;;;;;4.85;4.18;;;17.20;82.50;;;;;;5057807;28;20213;-84
2022/05/17 04:12:03;;;;;;;4.95;4.45;;;17.10;83.60;;;;;;5074339;28;20185;-84
2022/05/17 04:14:29;;;;;;;4.78;3.80;;;17.10;83.80;;;;;;5073338;28;20226;-83
2022/05/17 04:16:55;;;;;;;4.47;4.07;;;17.20;82.50;;;;;;5070321;28;20299;-83
2022/05/17 04:19:20;;;;;;;4.80;4.40;;;17.10;83.70;;;;;;5074348;28;20227;-84
2022/05/17 04:21:47;;;;;;;5.13;4.63;;;17.00;84.90;;;;;;5077152;28;20242;-84
2022/05/17 04:24:14;;;;;;;4.57;4.18;;;17.10;84.00;;;;;;5073958;28;20185;-83
2022/05/17 04:26:41;;;;;;;6.53;4.18;;;17.20;83.30;;;;;;5076967;28;20252;-84
2022/05/17 04:29:08;;;;;;;8.07;5.03;;;17.20;83.00;;;;;;5074189;28;20228;-83
2022/05/17 04:31:35;;;;;;;4.50;4.10;;;17.20;82.60;;;;;;5073573;28;20677;-84
2022/05/17 04:34:02;;;;;;;4.60;4.20;;;17.20;83.10;;;;;;5077537;28;21151;-84
2022/05/17 04:36:31;;;;;;;4.20;3.90;;;17.20;82.90;;;;;;5077452;28;20186;-84
2022/05/17 04:38:56;;;;;;;5.35;4.07;;;17.40;82.30;;;;;;5072785;28;20183;-84
2022/05/17 04:41:22;;;;;;;4.63;3.92;;;17.40;81.90;;;;;;5075561;28;20264;-84
2022/05/17 04:43:47;;;;;;;4.57;4.18;;;17.40;82.20;;;;;;5080737;28;20236;-84
2022/05/17 04:46:13;;;;;;;4.68;4.25;;;17.30;83.00;;;;;;5077935;28;20687;-85
2022/05/17 04:48:39;;;;;;;4.38;3.95;;;17.20;83.30;;;;;;5076202;28;20285;-85
2022/05/17 04:51:09;;;;;;;5.60;4.40;;;17.30;83.00;;;;;;5073475;28;20203;-85
2022/05/17 04:53:36;;;;;;;4.50;4.10;;;17.50;82.50;;;;;;5073121;28;20189;-84
2022/05/17 04:56:02;;;;;;;4.90;4.18;;;17.50;82.40;;;;;;5071883;28;20183;-84
2022/05/17 04:58:28;;;;;;;4.93;4.43;;;17.50;82.50;;;;;;5072908;28;20176;-83
2022/05/17 05:01:01;;;;;;;4.70;4.15;;;17.60;82.10;;;;;;5076556;28;20615;-84
2022/05/17 05:03:28;;;;;;;4.95;4.55;;;17.60;82.20;;;;;;5078630;28;20643;-84
2022/05/17 05:05:53;;;;;;;4.38;3.97;;;17.60;83.00;;;;;;5078365;28;20251;-84
2022/05/17 05:08:19;;;;;;;4.90;4.35;;;17.70;82.60;;;;;;5077392;28;20238;-84
2022/05/17 05:10:45;;;;;;;6.00;4.85;;;17.80;82.30;;;;;;5080972;28;20302;-84
2022/05/17 05:13:19;;;;;;;5.13;4.70;;;17.90;82.50;;;;;;5076270;28;20179;-84
2022/05/17 05:15:44;;;;;;;6.45;4.53;;;17.80;83.40;;;;;;5073484;28;20199;-83
2022/05/17 05:18:10;;;;;;;5.00;4.40;;;17.70;85.10;;;;;;5081821;28;20455;-84
2022/05/17 05:20:38;;;;;;;4.82;4.13;;;17.60;86.60;;;;;;5079922;28;20203;-84
2022/05/17 05:23:05;;;;;;;4.80;4.40;;;17.50;87.60;;;;;;5078548;28;20271;-84
2022/05/17 05:25:31;;;;;;;4.57;4.18;;;17.60;87.40;;;;;;5081427;28;20183;-83
2022/05/17 05:27:57;;;;;;;4.40;4.05;;;17.80;86.00;;;;;;5081680;28;20203;-84
2022/05/17 05:30:23;;;;;;;5.15;4.65;;;18.00;85.30;;;;;;5077469;28;20728;-83
2022/05/17 05:32:49;;;;;;;5.78;5.25;;;18.10;84.50;;;;;;5074421;28;20294;-84
2022/05/17 05:35:17;;;;;;;8.18;4.75;;;18.30;82.20;;;;;;5074420;28;20188;-84
2022/05/17 05:37:43;;;;;;;5.60;4.80;;;18.20;84.40;;;;;;5073793;28;20323;-84
2022/05/17 05:40:10;;;;;;;5.07;4.60;;;18.10;85.00;;;;;;5081585;28;20272;-84
2022/05/17 05:42:36;;;;;;;5.03;4.60;;;18.20;84.30;;;;;;5072825;28;20189;-84
2022/05/17 05:45:02;;;;;;;8.93;4.85;;;18.30;81.90;;;;;;5079520;28;20282;-84
2022/05/17 05:47:28;;;;;;;6.40;5.10;;;18.40;81.40;;;;;;5077460;28;20225;-84
2022/05/17 05:49:53;;;;;;;6.03;4.95;;;18.40;82.00;;;;;;5083892;28;20215;-84
2022/05/17 05:52:19;;;;;;;7.35;5.88;;;18.40;82.90;;;;;;5073078;28;20183;-84
2022/05/17 05:54:45;;;;;;;5.32;4.82;;;18.30;82.90;;;;;;5075164;28;20207;-84
2022/05/17 05:57:11;;;;;;;5.22;4.63;;;18.30;82.80;;;;;;5083824;28;20194;-84
2022/05/17 05:59:37;;;;;;;6.72;5.32;;;18.50;82.10;;;;;;5073332;28;20216;-84
2022/05/17 06:02:04;;;;;;;5.53;5.03;;;18.50;83.00;;;;;;5079298;28;20217;-84
2022/05/17 06:04:30;;;;;;;8.45;5.18;;;18.60;83.10;;;;;;5073999;28;20225;-82
2022/05/17 06:06:56;;;;;;;8.10;5.20;;;18.70;81.70;;;;;;5081085;28;20195;-84
2022/05/17 06:09:26;;;;;;;6.07;5.53;;;18.70;81.20;;;;;;5081621;28;20195;-84
2022/05/17 06:11:52;;;;;;;8.15;5.45;;;18.90;81.30;;;;;;5083652;28;20180;-85
2022/05/17 06:14:20;;;;;;;6.20;5.60;;;18.80;81.80;;;;;;5083945;28;20209;-84
2022/05/17 06:16:46;;;;;;;5.72;5.10;;;18.90;81.00;;;;;;5084825;28;20195;-84
2022/05/17 06:19:12;;;;;;;6.18;5.57;;;19.00;80.60;;;;;;5084071;28;20227;-84
2022/05/17 06:21:38;;;;;;;8.13;5.07;;;18.90;80.90;;;;;;5085574;28;20211;-84
2022/05/17 06:24:05;;;;;;;5.80;5.30;;;19.10;80.20;;;;;;5085338;28;20195;-84
2022/05/17 06:26:31;;;;;;;6.00;5.40;;;19.30;78.90;;;;;;5083286;28;20188;-84
2022/05/17 06:28:56;;;;;;;5.70;5.10;;;19.40;79.00;;;;;;5084367;28;20235;-85
2022/05/17 06:31:24;;;;;;;5.30;4.88;;;19.60;78.00;;;;;;5082305;28;20353;-84
2022/05/17 06:33:50;;;;;;;6.93;5.65;;;19.70;76.50;;;;;;5085447;28;20235;-83
2022/05/17 06:36:16;;;;;;;5.65;5.13;;;19.80;77.00;;;;;;5085209;28;20180;-85
2022/05/17 06:38:41;;;;;;;7.55;5.22;;;19.90;76.10;;;;;;5086104;28;20220;-84
2022/05/17 06:41:07;;;;;;;6.40;5.38;;;20.00;77.00;;;;;;5082630;28;20239;-84
2022/05/17 06:43:34;;;;;;;6.95;5.13;;;20.10;76.40;;;;;;5084808;28;20203;-86
2022/05/17 06:46:03;;;;;;;6.47;5.85;;;20.10;75.80;;;;;;5085874;28;20189;-84
2022/05/17 06:48:30;;;;;;;5.70;5.20;;;19.90;77.50;;;;;;5087022;28;20206;-84
2022/05/17 06:51:08;;;;;;;5.28;4.78;;;19.90;77.90;;;;;;5085459;28;20209;-85
2022/05/17 06:53:34;;;;;;;5.50;5.07;;;20.00;78.00;;;;;;5083908;28;20187;-84
2022/05/17 06:56:04;;;;;;;6.15;5.28;;;20.10;78.20;;;;;;5084060;28;20177;-84
2022/05/17 06:58:30;;;;;;;10.02;5.43;;;20.30;77.70;;;;;;5088674;28;20258;-84
2022/05/17 07:00:56;;;;;;;6.75;4.78;;;20.20;78.40;;;;;;5091156;28;20216;-85
2022/05/17 07:03:22;;;;;;;6.57;5.43;;;20.00;80.70;;;;;;5084732;28;20727;-82
2022/05/17 07:05:49;;;;;;;5.82;4.70;;;20.20;79.20;;;;;;5084885;28;20573;-83
2022/05/17 07:08:15;;;;;;;9.93;5.07;;;20.40;77.90;;;;;;5087113;28;20241;-81
2022/05/17 07:13:25;;;;;;;5.93;5.22;;;20.60;78.70;;;;;;5078466;28;20221;-80
2022/05/17 07:15:51;;;;;;;5.30;4.80;;;20.70;79.20;;;;;;5084656;28;20666;-80
2022/05/17 07:18:22;;;;;;;9.15;5.07;;;20.80;77.40;;;;;;5085195;28;20183;-80
2022/05/17 07:20:49;;;;;;;10.27;5.68;;;20.90;77.30;;;;;;5083858;28;20275;-80
2022/05/17 07:23:15;;;;;;;8.25;5.20;;;21.00;78.10;;;;;;5083195;28;20183;-79
2022/05/17 07:25:44;;;;;;;5.40;4.90;;;21.20;77.80;;;;;;5083109;28;20211;-80
2022/05/17 07:28:17;;;;;;;8.05;5.20;;;21.00;78.10;;;;;;5083109;28;20270;-79
2022/05/17 07:30:43;;;;;;;5.82;4.30;;;21.30;77.40;;;;;;5081923;28;20223;-79
2022/05/17 07:33:09;;;;;;;6.88;4.63;;;21.30;78.60;;;;;;5086550;28;20195;-82
2022/05/17 07:35:35;;;;;;;5.32;4.78;;;21.60;77.70;;;;;;5085054;28;20180;-85
2022/05/17 07:38:02;;;;;;;4.97;4.57;;;21.80;74.60;;;;;;5081100;28;20188;-83
2022/05/17 07:40:30;;;;;;;5.38;4.88;;;21.80;72.70;;;;;;5087325;28;20208;-82
2022/05/17 07:43:02;;;;;;;6.95;5.22;;;21.80;72.90;;;;;;5086268;28;20187;-81
2022/05/17 07:45:28;;;;;;;5.53;4.93;;;21.80;74.30;;;;;;5087611;28;20187;-83
2022/05/17 07:47:53;;;;;;;10.13;5.97;;;21.80;75.60;;;;;;5087147;28;20207;-83
2022/05/17 07:50:19;;;;;;;6.65;5.00;;;22.00;75.20;;;;;;5087714;28;20225;-82
2022/05/17 07:52:45;;;;;;;10.05;5.57;;;22.20;72.80;;;;;;5087440;28;20282;-82
2022/05/17 07:55:12;;;;;;;6.50;4.72;;;22.30;72.10;;;;;;5071046;28;20183;-86
2022/05/17 07:57:38;;;;;;;10.35;5.80;;;22.40;70.20;;;;;;5087373;28;20285;-82
2022/05/17 08:00:06;;;;;;;8.73;5.03;;;22.50;71.10;;;;;;5086197;28;20212;-82
2022/05/17 08:02:33;;;;;;;5.40;4.95;;;22.60;71.30;;;;;;5086185;28;20286;-83
2022/05/17 08:04:59;;;;;;;5.88;4.88;;;22.70;68.90;;;;;;5079549;28;20187;-83
2022/05/17 08:07:25;;;;;;;5.40;4.90;;;22.80;69.70;;;;;;5087081;28;20229;-83
2022/05/17 08:09:51;;;;;;;7.78;5.50;;;22.90;70.40;;;;;;5085551;28;20203;-82
2022/05/17 08:12:17;;;;;;;8.40;5.53;;;22.90;69.30;;;;;;5084747;28;20179;-82
2022/05/17 08:14:44;;;;;;;7.38;6.35;;;23.10;66.50;;;;;;5084169;28;20685;-83
2022/05/17 08:17:10;;;;;;;6.60;5.90;;;23.20;64.60;;;;;;5086700;28;20265;-83
2022/05/17 08:19:39;;;;;;;7.75;6.28;;;23.20;65.30;;;;;;5086247;28;20203;-83
2022/05/17 08:22:08;;;;;;;7.22;5.78;;;23.30;64.90;;;;;;5085465;28;20187;-81
2022/05/17 08:27:31;;;;;;;7.38;6.18;;;23.40;64.30;;;;;;5042440;28;20269;-82
2022/05/17 08:30:01;;;;;;;6.10;5.50;;;23.40;61.80;;;;;;5080886;28;20203;-82
2022/05/17 08:35:11;;;;;;;8.40;6.68;;;23.60;60.70;;;;;;5081303;28;20233;-83
2022/05/17 08:37:37;;;;;;;8.07;6.43;;;23.60;60.00;;;;;;5086090;28;20188;-85
2022/05/17 08:40:03;;;;;;;6.03;5.43;;;23.60;59.90;;;;;;5084259;28;20215;-85
2022/05/17 08:42:51;;;;;;;6.15;5.63;;;23.70;60.30;;;;;;5086255;28;20203;-82
2022/05/17 08:45:28;;;;;;;6.43;5.38;;;23.80;60.50;;;;;;5083127;28;20671;-82
2022/05/17 08:47:54;;;;;;;5.97;5.47;;;23.60;57.90;;;;;;5082758;28;20270;-81
2022/05/17 08:50:25;;;;;;;8.90;6.30;;;23.90;58.60;;;;;;5080663;28;20234;-83
2022/05/17 08:52:54;;;;;;;5.38;4.88;;;24.20;57.70;;;;;;5085374;28;20224;-82
2022/05/17 08:55:36;;;;;;;5.78;5.03;;;24.40;56.40;;;;;;5083880;28;20187;-82
2022/05/17 08:58:12;;;;;;;6.25;5.65;;;24.50;56.00;;;;;;5084185;28;20214;-83
2022/05/17 09:01:12;;;;;;;5.50;5.00;;;24.40;56.30;;;;;;5063624;28;20298;-83
2022/05/17 09:03:50;;;;;;;7.88;5.32;;;24.20;56.30;;;;;;5049811;28;20266;-83
2022/05/17 09:06:26;;;;;;;5.13;4.72;;;24.30;55.30;;;;;;5085015;28;20168;-83
2022/05/17 09:09:19;;;;;;;5.25;4.75;;;24.60;53.90;;;;;;5083115;28;20228;-82
2022/05/17 09:11:59;;;;;;;7.15;4.32;;;24.80;50.90;;;;;;5082635;28;20183;-82
2022/05/17 09:14:32;;;;;;;5.85;5.18;;;25.00;51.70;;;;;;5081429;28;20182;-83
2022/05/17 09:17:06;;;;;;;9.18;5.25;;;24.90;52.80;;;;;;5083827;28;20211;-81
2022/05/17 09:19:32;;;;;;;6.35;4.80;;;24.90;52.70;;;;;;5083486;28;20203;-83
2022/05/17 09:22:00;;;;;;;7.28;4.88;;;25.30;51.50;;;;;;5081783;28;20516;-85
2022/05/17 09:24:30;;;;;;;5.15;4.55;;;25.50;50.70;;;;;;5084490;28;20308;-86
2022/05/17 09:27:21;;;;;;;7.30;4.68;;;25.50;52.10;;;;;;5083669;28;20272;-84
2022/05/17 09:29:49;;;;;;;5.88;4.75;;;25.60;50.60;;;;;;5080509;28;20211;-83
2022/05/17 09:32:24;;;;;;;6.10;4.90;;;25.80;46.30;;;;;;5076198;28;20179;-83
2022/05/17 09:35:08;;;;;;;4.95;4.55;;;26.00;47.40;;;;;;5083346;28;20194;-83
2022/05/17 09:37:36;;;;;;;5.32;4.90;;;26.00;48.60;;;;;;5083984;28;20200;-82
2022/05/17 09:40:07;;;;;;;5.97;5.15;;;26.10;48.70;;;;;;5084512;28;20199;-82
2022/05/17 09:42:42;;;;;;;6.45;4.72;;;26.10;48.50;;;;;;5084408;28;20199;-85
2022/05/17 09:45:15;;;;;;;5.05;4.65;;;26.10;47.70;;;;;;5081552;28;20175;-82
2022/05/17 09:47:55;;;;;;;6.22;4.82;;;26.10;47.30;;;;;;5081679;28;20203;-82
2022/05/17 09:53:10;;;;;;;7.70;5.05;;;26.30;45.80;;;;;;5081200;28;20194;-83
2022/05/17 09:55:37;;;;;;;6.50;4.85;;;26.20;44.80;;;;;;5081160;28;20176;-82
2022/05/17 09:58:27;;;;;;;7.75;4.65;;;26.30;45.90;;;;;;5080063;28;20244;-81
2022/05/17 10:00:54;;;;;;;7.47;5.10;;;26.40;46.40;;;;;;5082557;28;20219;-85
2022/05/17 10:03:26;;;;;;;6.22;5.10;;;26.60;44.70;;;;;;5079738;28;20229;-82
2022/05/17 10:06:16;;;;;;;6.03;4.78;;;26.50;45.20;;;;;;5081666;28;20276;-82
2022/05/17 10:09:03;;;;;;;5.68;4.85;;;26.30;45.10;;;;;;5080449;28;20614;-82
2022/05/17 10:11:39;;;;;;;6.03;4.78;;;26.50;44.50;;;;;;5078148;28;20187;-83
2022/05/17 10:14:24;;;;;;;5.20;4.78;;;26.40;45.40;;;;;;5081210;28;20186;-84
2022/05/17 10:16:52;;;;;;;6.30;5.30;;;26.80;45.60;;;;;;5078023;28;20191;-86
2022/05/17 10:19:43;;;;;;;6.88;5.28;;;26.80;44.90;;;;;;5079430;28;20199;-83
2022/05/17 10:22:37;;;;;;;5.88;5.22;;;27.00;45.20;;;;;;5081802;28;20202;-84
2022/05/17 10:25:13;;;;;;;5.93;4.93;;;27.20;45.60;;;;;;5079961;28;20210;-85
2022/05/17 10:27:48;;;;;;;8.23;5.22;;;27.60;43.80;;;;;;5081737;28;20240;-83
2022/05/17 10:30:23;;;;;;;5.18;4.63;;;27.60;42.90;;;;;;5080870;28;20581;-84
2022/05/17 10:33:04;;;;;;;11.02;6.10;;;27.60;41.30;;;;;;5083525;28;20730;-83
2022/05/17 10:35:32;;;;;;;7.82;5.38;;;27.20;45.20;;;;;;5081735;28;20187;-83
2022/05/17 10:38:10;;;;;;;6.95;5.18;;;27.30;45.10;;;;;;5085060;28;20184;-86
2022/05/17 10:40:43;;;;;;;5.63;4.93;;;27.30;43.90;;;;;;5082508;28;20200;-83
2022/05/17 10:43:32;;;;;;;4.57;4.18;;;27.30;43.50;;;;;;5081532;28;20210;-82
2022/05/17 10:46:08;;;;;;;5.65;4.13;;;27.80;39.00;;;;;;5073621;28;20321;-82
2022/05/17 10:48:48;;;;;;;8.15;4.32;;;28.30;39.00;;;;;;5083529;28;20293;-85
2022/05/17 10:51:29;;;;;;;5.00;4.60;;;28.20;38.70;;;;;;5083290;28;20494;-83
2022/05/17 10:54:09;;;;;;;9.23;5.57;;;28.30;39.40;;;;;;5086489;28;20183;-82
2022/05/17 10:56:44;;;;;;;6.82;5.60;;;28.50;40.10;;;;;;5082727;28;20246;-81
2022/05/17 10:59:28;;;;;;;8.20;5.25;;;28.60;39.50;;;;;;5083856;28;20318;-82
2022/05/17 11:02:30;;;;;;;5.55;5.07;;;28.70;39.60;;;;;;5080969;28;20207;-82
2022/05/17 11:05:21;;;;;;;5.85;5.30;;;29.00;39.80;;;;;;5082921;28;20183;-82
2022/05/17 11:08:05;;;;;;;7.13;4.82;;;29.30;40.40;;;;;;5082252;28;20198;-80
2022/05/17 11:10:55;;;;;;;6.53;4.80;;;29.20;37.40;;;;;;5083748;28;20309;-82
2022/05/17 11:13:26;;;;;;;5.43;4.22;;;29.50;36.20;;;;;;5079856;28;20191;-80
2022/05/17 11:16:07;;;;;;;5.82;4.63;;;29.60;35.40;;;;;;5083279;28;20301;-82
2022/05/17 11:18:43;;;;;;;6.32;5.22;;;29.60;37.00;;;;;;5083179;28;20274;-82
2022/05/17 11:21:17;;;;;;;5.13;4.63;;;29.60;36.50;;;;;;5082823;28;20195;-84
2022/05/17 11:23:54;;;;;;;5.05;4.57;;;29.70;35.00;;;;;;5084662;28;20190;-82
2022/05/17 11:26:52;;;;;;;8.70;5.10;;;29.30;36.40;;;;;;5083477;28;20168;-84
2022/05/17 11:29:43;;;;;;;5.05;4.55;;;29.70;35.00;;;;;;5078728;28;20218;-83
2022/05/17 11:32:21;;;;;;;5.05;4.57;;;29.80;34.80;;;;;;5083457;28;20183;-83
2022/05/17 11:34:47;;;;;;;5.25;4.78;;;30.30;34.70;;;;;;5080129;28;20176;-83
2022/05/17 11:37:34;;;;;;;6.50;5.47;;;30.20;34.90;;;;;;5082089;28;20217;-83
2022/05/17 11:40:10;;;;;;;7.18;5.65;;;30.20;36.60;;;;;;5080289;28;20200;-83
2022/05/17 11:43:40;;;;;;;5.88;5.10;;;30.40;36.70;;;;;;5083848;28;20179;-86
2022/05/17 11:45:50;;;;;;;6.32;4.30;;;30.30;35.10;;;;;;5080484;28;20192;-84
2022/05/17 11:48:21;;;;;;;4.10;3.80;;;30.30;31.90;;;;;;5082452;28;20213;-83
2022/05/17 11:50:55;;;;;;;4.25;3.80;;;30.70;31.10;;;;;;5081744;28;20602;-83
2022/05/17 11:53:24;;;;;;;4.47;4.05;;;31.00;30.80;;;;;;5083425;28;20179;-84
2022/05/17 11:56:21;;;;;;;5.00;4.60;;;31.10;30.90;;;;;;5083046;28;20184;-84
2022/05/17 11:58:49;;;;;;;4.32;4.03;;;30.80;31.50;;;;;;5077338;28;20194;-83
2022/05/17 12:01:30;;;;;;;4.82;4.40;;;30.70;30.80;;;;;;5082036;28;20206;-83
2022/05/17 12:04:00;;;;;;;6.75;4.15;;;30.90;31.00;;;;;;5080492;28;20183;-82
2022/05/17 12:06:56;;;;;;;4.60;4.15;;;30.60;30.80;;;;;;5082853;28;20179;-81
2022/05/17 12:09:29;;;;;;;4.75;4.35;;;31.40;30.30;;;;;;5082746;28;20215;-83
2022/05/17 12:12:32;;;;;;;4.90;3.90;;;31.60;30.70;;;;;;5080355;28;20172;-81
2022/05/17 12:15:07;;;;;;;3.92;3.60;;;32.10;29.90;;;;;;5083287;28;20236;-81
2022/05/17 12:17:46;;;;;;;4.10;3.65;;;32.20;28.80;;;;;;5084912;28;20386;-82
2022/05/17 12:20:18;;;;;;;4.10;3.80;;;32.20;28.00;;;;;;5080726;28;20740;-83
2022/05/17 12:22:54;;;;;;;3.85;3.53;;;32.50;28.20;;;;;;5081803;28;20191;-82
2022/05/17 12:25:37;;;;;;;4.50;3.97;;;32.40;28.50;;;;;;5082780;28;20183;-82
2022/05/17 12:28:08;;;;;;;6.30;4.10;;;32.20;28.40;;;;;;5081661;28;20199;-82
2022/05/17 12:33:27;;;;;;;5.13;4.30;;;32.20;29.60;;;;;;5077613;28;20262;-82
2022/05/17 12:36:09;;;;;;;4.82;3.78;;;31.40;30.50;;;;;;5078469;28;20175;-82
2022/05/17 12:44:25;;;;;;;4.70;4.00;;;32.40;29.50;;;;;;5077717;28;20250;-82
2022/05/17 12:46:55;;;;;;;4.60;3.72;;;33.00;29.30;;;;;;5081004;28;20215;-81
2022/05/17 12:49:26;;;;;;;3.97;3.67;;;32.60;28.20;;;;;;5080019;28;20226;-82
2022/05/17 12:51:55;;;;;;;4.78;4.30;;;32.60;28.50;;;;;;5079998;28;20199;-84
2022/05/17 12:54:25;;;;;;;4.72;3.72;;;33.20;28.90;;;;;;5077506;28;20199;-81
2022/05/17 12:56:51;;;;;;;4.22;3.67;;;33.80;28.60;;;;;;5077736;28;20190;-83
2022/05/17 12:59:29;;;;;;;3.97;3.72;;;34.00;28.80;;;;;;5080869;28;20207;-81
2022/05/17 13:01:58;;;;;;;4.50;4.15;;;33.80;28.30;;;;;;5080044;28;20187;-82
2022/05/17 13:04:31;;;;;;;5.70;4.32;;;33.30;28.00;;;;;;5082463;28;20198;-83
2022/05/17 13:07:16;;;;;;;4.70;3.80;;;33.50;28.40;;;;;;5078524;28;20207;-83
2022/05/17 13:10:03;;;;;;;3.33;3.03;;;32.50;28.00;;;;;;5079604;28;20265;-82
2022/05/17 13:12:36;;;;;;;5.60;3.63;;;32.70;27.10;;;;;;5079643;28;20183;-81
2022/05/17 13:15:07;;;;;;;4.68;3.78;;;33.00;28.30;;;;;;5078622;28;20211;-82
2022/05/17 13:17:38;;;;;;;4.32;4.03;;;33.50;28.30;;;;;;5076765;28;20203;-82
2022/05/17 13:20:21;;;;;;;4.35;4.00;;;33.20;28.70;;;;;;5081268;28;20215;-82
2022/05/17 13:22:51;;;;;;;4.10;3.70;;;33.40;28.30;;;;;;5082175;28;20187;-82
2022/05/17 13:25:20;;;;;;;3.80;3.50;;;33.50;27.90;;;;;;5081547;28;20263;-82